sensor_id;sensor_type;location;lat;lon;timestamp;temperature;humidity
8850;DHT22;5638;50.860;4.698;2022-09-14T00:00:25;20.60;99.90
8850;DHT22;5638;50.860;4.698;2022-09-14T00:02:51;20.60;99.90
8850;DHT22;5638;50.860;4.698;2022-09-14T00:05:18;20.60;99.90
8850;DHT22;5638;50.860;4.698;2022-09-14T00:07:44;20.60;99.90
8850;DHT22;5638;50.860;4.698;2022-09-14T00:10:10;20.50;99.90
8850;DHT22;5638;50.860;4.698;2022-09-14T00:12:36;20.50;99.90
8850;DHT22;5638;50.860;4.698;2022-09-14T00:15:02;20.40;99.90
8850;DHT22;5638;50.860;4.698;2022-09-14T00:17:28;20.30;99.90
8850;DHT22;5638;50.860;4.698;2022-09-14T00:19:54;20.30;99.90
8850;DHT22;5638;50.860;4.698;2022-09-14T00:22:20;20.20;99.90
8850;DHT22;5638;50.860;4.698;2022-09-14T00:24:46;20.20;99.90
8850;DHT22;5638;50.860;4.698;2022-09-14T00:27:11;20.10;99.90
8850;DHT22;5638;50.860;4.698;2022-09-14T00:29:38;20.10;99.90
8850;DHT22;5638;50.860;4.698;2022-09-14T00:32:03;20.20;99.90
8850;DHT22;5638;50.860;4.698;2022-09-14T00:34:29;20.10;99.90
8850;DHT22;5638;50.860;4.698;2022-09-14T00:36:55;20.10;99.90
8850;DHT22;5638;50.860;4.698;2022-09-14T00:39:22;20.00;99.90
8850;DHT22;5638;50.860;4.698;2022-09-14T00:41:50;20.00;99.90
8850;DHT22;5638;50.860;4.698;2022-09-14T00:46:45;20.00;99.90
8850;DHT22;5638;50.860;4.698;2022-09-14T00:52:13;20.00;99.90
8850;DHT22;5638;50.860;4.698;2022-09-14T00:54:58;19.90;99.90
8850;DHT22;5638;50.860;4.698;2022-09-14T00:57:30;19.90;99.90
8850;DHT22;5638;50.860;4.698;2022-09-14T01:00:00;19.80;99.90
8850;DHT22;5638;50.860;4.698;2022-09-14T01:02:27;19.80;99.90
8850;DHT22;5638;50.860;4.698;2022-09-14T01:04:54;19.80;99.90
8850;DHT22;5638;50.860;4.698;2022-09-14T01:10:17;19.90;99.90
8850;DHT22;5638;50.860;4.698;2022-09-14T01:13:27;19.80;99.90
8850;DHT22;5638;50.860;4.698;2022-09-14T01:16:31;19.80;99.90
8850;DHT22;5638;50.860;4.698;2022-09-14T01:19:08;19.70;99.90
8850;DHT22;5638;50.860;4.698;2022-09-14T01:21:41;19.80;99.90
8850;DHT22;5638;50.860;4.698;2022-09-14T01:27:24;19.70;99.90
8850;DHT22;5638;50.860;4.698;2022-09-14T01:30:11;19.70;99.90
8850;DHT22;5638;50.860;4.698;2022-09-14T01:32:51;19.80;99.90
8850;DHT22;5638;50.860;4.698;2022-09-14T01:35:29;19.70;99.90
8850;DHT22;5638;50.860;4.698;2022-09-14T01:38:10;19.60;99.90
8850;DHT22;5638;50.860;4.698;2022-09-14T01:40:48;19.60;99.90
8850;DHT22;5638;50.860;4.698;2022-09-14T01:43:20;19.70;99.90
8850;DHT22;5638;50.860;4.698;2022-09-14T01:45:50;19.60;99.90
8850;DHT22;5638;50.860;4.698;2022-09-14T01:48:32;19.60;99.90
8850;DHT22;5638;50.860;4.698;2022-09-14T01:51:04;19.50;99.90
8850;DHT22;5638;50.860;4.698;2022-09-14T01:53:52;19.60;99.90
8850;DHT22;5638;50.860;4.698;2022-09-14T01:56:31;19.60;99.90
8850;DHT22;5638;50.860;4.698;2022-09-14T01:59:19;19.60;99.90
8850;DHT22;5638;50.860;4.698;2022-09-14T02:02:02;19.50;99.90
8850;DHT22;5638;50.860;4.698;2022-09-14T02:04:46;19.50;99.90
8850;DHT22;5638;50.860;4.698;2022-09-14T02:07:15;19.30;99.90
8850;DHT22;5638;50.860;4.698;2022-09-14T02:09:42;19.30;99.90
8850;DHT22;5638;50.860;4.698;2022-09-14T02:12:10;19.20;99.90
8850;DHT22;5638;50.860;4.698;2022-09-14T02:14:36;19.20;99.90
8850;DHT22;5638;50.860;4.698;2022-09-14T02:17:02;19.10;99.90
8850;DHT22;5638;50.860;4.698;2022-09-14T02:19:31;19.10;99.90
8850;DHT22;5638;50.860;4.698;2022-09-14T02:22:02;19.10;99.90
8850;DHT22;5638;50.860;4.698;2022-09-14T02:24:28;19.10;99.90
8850;DHT22;5638;50.860;4.698;2022-09-14T02:26:55;19.30;99.90
8850;DHT22;5638;50.860;4.698;2022-09-14T02:29:22;19.30;99.90
8850;DHT22;5638;50.860;4.698;2022-09-14T02:35:41;19.30;99.90
8850;DHT22;5638;50.860;4.698;2022-09-14T02:38:19;19.20;99.90
8850;DHT22;5638;50.860;4.698;2022-09-14T02:46:16;19.40;99.90
8850;DHT22;5638;50.860;4.698;2022-09-14T02:49:08;19.40;99.90
8850;DHT22;5638;50.860;4.698;2022-09-14T02:51:58;19.40;99.90
8850;DHT22;5638;50.860;4.698;2022-09-14T02:55:02;19.50;99.90
8850;DHT22;5638;50.860;4.698;2022-09-14T02:57:32;19.40;99.90
8850;DHT22;5638;50.860;4.698;2022-09-14T03:00:37;19.40;99.90
8850;DHT22;5638;50.860;4.698;2022-09-14T03:03:06;19.50;99.90
8850;DHT22;5638;50.860;4.698;2022-09-14T03:05:34;19.40;99.90
8850;DHT22;5638;50.860;4.698;2022-09-14T03:08:00;19.30;99.90
8850;DHT22;5638;50.860;4.698;2022-09-14T03:10:27;19.20;99.90
8850;DHT22;5638;50.860;4.698;2022-09-14T03:12:53;19.20;99.90
8850;DHT22;5638;50.860;4.698;2022-09-14T03:15:19;19.10;99.90
8850;DHT22;5638;50.860;4.698;2022-09-14T03:17:46;19.10;99.90
8850;DHT22;5638;50.860;4.698;2022-09-14T03:20:15;19.20;99.90
8850;DHT22;5638;50.860;4.698;2022-09-14T03:22:47;19.20;99.90
8850;DHT22;5638;50.860;4.698;2022-09-14T03:25:13;19.20;99.90
8850;DHT22;5638;50.860;4.698;2022-09-14T03:27:39;19.20;99.90
8850;DHT22;5638;50.860;4.698;2022-09-14T03:30:07;19.10;99.90
8850;DHT22;5638;50.860;4.698;2022-09-14T03:32:34;19.10;99.90
8850;DHT22;5638;50.860;4.698;2022-09-14T03:35:00;19.10;99.90
8850;DHT22;5638;50.860;4.698;2022-09-14T03:37:26;19.10;99.90
8850;DHT22;5638;50.860;4.698;2022-09-14T03:39:52;19.10;99.90
8850;DHT22;5638;50.860;4.698;2022-09-14T03:42:18;19.10;99.90
8850;DHT22;5638;50.860;4.698;2022-09-14T03:44:44;19.20;99.90
8850;DHT22;5638;50.860;4.698;2022-09-14T03:47:09;19.30;99.90
8850;DHT22;5638;50.860;4.698;2022-09-14T03:49:35;19.30;99.90
8850;DHT22;5638;50.860;4.698;2022-09-14T03:52:01;19.30;99.90
8850;DHT22;5638;50.860;4.698;2022-09-14T03:54:28;19.40;99.90
8850;DHT22;5638;50.860;4.698;2022-09-14T03:56:53;19.30;99.90
8850;DHT22;5638;50.860;4.698;2022-09-14T03:59:20;19.30;99.90
8850;DHT22;5638;50.860;4.698;2022-09-14T04:01:46;19.30;99.90
8850;DHT22;5638;50.860;4.698;2022-09-14T04:04:12;19.30;99.90
8850;DHT22;5638;50.860;4.698;2022-09-14T04:06:38;19.20;99.90
8850;DHT22;5638;50.860;4.698;2022-09-14T04:09:04;19.10;99.90
8850;DHT22;5638;50.860;4.698;2022-09-14T04:11:30;19.00;99.90
8850;DHT22;5638;50.860;4.698;2022-09-14T04:14:03;18.90;99.90
8850;DHT22;5638;50.860;4.698;2022-09-14T04:16:30;18.80;99.90
8850;DHT22;5638;50.860;4.698;2022-09-14T04:18:55;19.00;99.90
8850;DHT22;5638;50.860;4.698;2022-09-14T04:21:24;19.00;99.90
8850;DHT22;5638;50.860;4.698;2022-09-14T04:23:55;19.00;99.90
8850;DHT22;5638;50.860;4.698;2022-09-14T04:26:24;19.00;99.90
8850;DHT22;5638;50.860;4.698;2022-09-14T04:28:54;18.90;99.90
8850;DHT22;5638;50.860;4.698;2022-09-14T04:31:21;18.90;99.90
8850;DHT22;5638;50.860;4.698;2022-09-14T04:33:47;18.80;99.90
8850;DHT22;5638;50.860;4.698;2022-09-14T04:36:20;18.80;99.90
8850;DHT22;5638;50.860;4.698;2022-09-14T04:38:52;18.80;99.90
8850;DHT22;5638;50.860;4.698;2022-09-14T04:41:20;18.90;99.90
8850;DHT22;5638;50.860;4.698;2022-09-14T04:43:48;18.80;99.90
8850;DHT22;5638;50.860;4.698;2022-09-14T04:46:17;18.70;99.90
8850;DHT22;5638;50.860;4.698;2022-09-14T04:48:48;18.70;99.90
8850;DHT22;5638;50.860;4.698;2022-09-14T04:51:17;18.70;99.90
8850;DHT22;5638;50.860;4.698;2022-09-14T04:53:49;18.70;99.90
8850;DHT22;5638;50.860;4.698;2022-09-14T04:56:18;18.70;99.90
8850;DHT22;5638;50.860;4.698;2022-09-14T04:58:48;18.80;99.90
8850;DHT22;5638;50.860;4.698;2022-09-14T05:01:18;18.80;99.90
8850;DHT22;5638;50.860;4.698;2022-09-14T05:03:46;18.80;99.90
8850;DHT22;5638;50.860;4.698;2022-09-14T05:06:15;18.90;99.90
8850;DHT22;5638;50.860;4.698;2022-09-14T05:08:43;18.70;99.90
8850;DHT22;5638;50.860;4.698;2022-09-14T05:11:13;18.70;99.90
8850;DHT22;5638;50.860;4.698;2022-09-14T05:13:46;18.80;99.90
8850;DHT22;5638;50.860;4.698;2022-09-14T05:16:21;18.70;99.90
8850;DHT22;5638;50.860;4.698;2022-09-14T05:18:49;18.80;99.90
8850;DHT22;5638;50.860;4.698;2022-09-14T05:21:19;18.90;99.90
8850;DHT22;5638;50.860;4.698;2022-09-14T05:23:46;18.90;99.90
8850;DHT22;5638;50.860;4.698;2022-09-14T05:26:17;18.90;99.90
8850;DHT22;5638;50.860;4.698;2022-09-14T05:28:47;19.00;99.90
8850;DHT22;5638;50.860;4.698;2022-09-14T05:31:14;19.00;99.90
8850;DHT22;5638;50.860;4.698;2022-09-14T05:33:41;19.00;99.90
8850;DHT22;5638;50.860;4.698;2022-09-14T05:36:08;18.80;99.90
8850;DHT22;5638;50.860;4.698;2022-09-14T05:38:36;18.90;99.90
8850;DHT22;5638;50.860;4.698;2022-09-14T05:41:04;18.80;99.90
8850;DHT22;5638;50.860;4.698;2022-09-14T05:43:31;18.80;99.90
8850;DHT22;5638;50.860;4.698;2022-09-14T05:46:02;18.90;99.90
8850;DHT22;5638;50.860;4.698;2022-09-14T05:48:31;18.90;99.90
8850;DHT22;5638;50.860;4.698;2022-09-14T05:50:58;18.90;99.90
8850;DHT22;5638;50.860;4.698;2022-09-14T05:53:26;18.90;99.90
8850;DHT22;5638;50.860;4.698;2022-09-14T05:58:29;18.80;99.90
8850;DHT22;5638;50.860;4.698;2022-09-14T06:00:56;18.80;99.90
8850;DHT22;5638;50.860;4.698;2022-09-14T06:03:22;18.70;99.90
8850;DHT22;5638;50.860;4.698;2022-09-14T06:05:48;18.70;99.90
8850;DHT22;5638;50.860;4.698;2022-09-14T06:08:14;18.70;99.90
8850;DHT22;5638;50.860;4.698;2022-09-14T06:10:40;18.60;99.90
8850;DHT22;5638;50.860;4.698;2022-09-14T06:13:06;18.50;99.90
8850;DHT22;5638;50.860;4.698;2022-09-14T06:15:33;18.40;99.90
8850;DHT22;5638;50.860;4.698;2022-09-14T06:17:59;18.30;99.90
8850;DHT22;5638;50.860;4.698;2022-09-14T06:20:25;18.40;99.90
8850;DHT22;5638;50.860;4.698;2022-09-14T06:22:51;18.40;99.90
8850;DHT22;5638;50.860;4.698;2022-09-14T06:25:17;18.40;99.90
8850;DHT22;5638;50.860;4.698;2022-09-14T06:27:42;18.40;99.90
8850;DHT22;5638;50.860;4.698;2022-09-14T06:30:09;18.40;99.90
8850;DHT22;5638;50.860;4.698;2022-09-14T06:32:35;18.40;99.90
8850;DHT22;5638;50.860;4.698;2022-09-14T06:35:01;18.40;99.90
8850;DHT22;5638;50.860;4.698;2022-09-14T06:37:28;18.40;99.90
8850;DHT22;5638;50.860;4.698;2022-09-14T06:39:54;18.30;99.90
8850;DHT22;5638;50.860;4.698;2022-09-14T06:42:20;18.30;99.90
8850;DHT22;5638;50.860;4.698;2022-09-14T06:44:46;18.30;99.90
8850;DHT22;5638;50.860;4.698;2022-09-14T06:47:12;18.30;99.90
8850;DHT22;5638;50.860;4.698;2022-09-14T06:49:38;18.30;99.90
8850;DHT22;5638;50.860;4.698;2022-09-14T06:52:03;18.40;99.90
8850;DHT22;5638;50.860;4.698;2022-09-14T06:54:29;18.50;99.90
8850;DHT22;5638;50.860;4.698;2022-09-14T06:56:55;18.50;99.90
8850;DHT22;5638;50.860;4.698;2022-09-14T06:59:21;18.50;99.90
8850;DHT22;5638;50.860;4.698;2022-09-14T07:01:47;18.50;99.90
8850;DHT22;5638;50.860;4.698;2022-09-14T07:04:14;18.50;99.90
8850;DHT22;5638;50.860;4.698;2022-09-14T07:06:43;18.40;99.90
8850;DHT22;5638;50.860;4.698;2022-09-14T07:09:10;18.40;99.90
8850;DHT22;5638;50.860;4.698;2022-09-14T07:11:37;18.50;99.90
8850;DHT22;5638;50.860;4.698;2022-09-14T07:14:05;18.50;99.90
8850;DHT22;5638;50.860;4.698;2022-09-14T07:16:32;18.40;99.90
8850;DHT22;5638;50.860;4.698;2022-09-14T07:19:05;18.30;99.90
8850;DHT22;5638;50.860;4.698;2022-09-14T07:21:34;18.30;99.90
8850;DHT22;5638;50.860;4.698;2022-09-14T07:24:01;18.30;99.90
8850;DHT22;5638;50.860;4.698;2022-09-14T07:26:33;18.30;99.90
8850;DHT22;5638;50.860;4.698;2022-09-14T07:29:05;18.20;99.90
8850;DHT22;5638;50.860;4.698;2022-09-14T07:31:44;18.20;99.90
8850;DHT22;5638;50.860;4.698;2022-09-14T07:34:13;18.20;99.90
8850;DHT22;5638;50.860;4.698;2022-09-14T07:36:40;18.30;99.90
8850;DHT22;5638;50.860;4.698;2022-09-14T07:39:09;18.30;99.90
8850;DHT22;5638;50.860;4.698;2022-09-14T07:41:40;18.30;99.90
8850;DHT22;5638;50.860;4.698;2022-09-14T07:44:08;18.20;99.90
8850;DHT22;5638;50.860;4.698;2022-09-14T07:46:41;18.20;99.90
8850;DHT22;5638;50.860;4.698;2022-09-14T07:49:09;18.20;99.90
8850;DHT22;5638;50.860;4.698;2022-09-14T07:51:37;18.20;99.90
8850;DHT22;5638;50.860;4.698;2022-09-14T07:54:04;18.20;99.90
8850;DHT22;5638;50.860;4.698;2022-09-14T07:56:32;18.20;99.90
8850;DHT22;5638;50.860;4.698;2022-09-14T07:58:59;18.30;99.90
8850;DHT22;5638;50.860;4.698;2022-09-14T08:01:26;18.30;99.90
8850;DHT22;5638;50.860;4.698;2022-09-14T08:03:54;18.30;99.90
8850;DHT22;5638;50.860;4.698;2022-09-14T08:06:22;18.30;99.90
8850;DHT22;5638;50.860;4.698;2022-09-14T08:08:52;18.40;99.90
8850;DHT22;5638;50.860;4.698;2022-09-14T08:11:33;18.50;99.90
8850;DHT22;5638;50.860;4.698;2022-09-14T08:14:02;18.40;99.90
8850;DHT22;5638;50.860;4.698;2022-09-14T08:16:31;18.50;99.90
8850;DHT22;5638;50.860;4.698;2022-09-14T08:19:01;18.60;99.90
8850;DHT22;5638;50.860;4.698;2022-09-14T08:21:30;18.60;99.90
8850;DHT22;5638;50.860;4.698;2022-09-14T08:23:58;18.50;99.90
8850;DHT22;5638;50.860;4.698;2022-09-14T08:26:27;18.50;99.90
8850;DHT22;5638;50.860;4.698;2022-09-14T08:28:54;18.50;99.90
8850;DHT22;5638;50.860;4.698;2022-09-14T08:31:22;18.50;99.90
8850;DHT22;5638;50.860;4.698;2022-09-14T08:33:52;18.50;99.90
8850;DHT22;5638;50.860;4.698;2022-09-14T08:36:23;18.50;99.90
8850;DHT22;5638;50.860;4.698;2022-09-14T08:38:51;18.60;99.90
8850;DHT22;5638;50.860;4.698;2022-09-14T08:43:49;18.70;99.90
8850;DHT22;5638;50.860;4.698;2022-09-14T08:46:35;18.70;99.90
8850;DHT22;5638;50.860;4.698;2022-09-14T08:52:27;18.70;99.90
8850;DHT22;5638;50.860;4.698;2022-09-14T08:55:51;18.70;99.90
8850;DHT22;5638;50.860;4.698;2022-09-14T09:01:36;18.70;99.90
8850;DHT22;5638;50.860;4.698;2022-09-14T09:07:16;18.70;99.90
8850;DHT22;5638;50.860;4.698;2022-09-14T09:10:04;18.70;99.90
8850;DHT22;5638;50.860;4.698;2022-09-14T09:12:42;18.80;99.90
8850;DHT22;5638;50.860;4.698;2022-09-14T09:15:31;18.70;99.90
8850;DHT22;5638;50.860;4.698;2022-09-14T09:18:07;18.70;99.90
8850;DHT22;5638;50.860;4.698;2022-09-14T09:20:41;18.70;99.90
8850;DHT22;5638;50.860;4.698;2022-09-14T09:23:20;18.60;99.90
8850;DHT22;5638;50.860;4.698;2022-09-14T09:26:00;18.70;99.90
8850;DHT22;5638;50.860;4.698;2022-09-14T09:28:30;18.60;99.90
8850;DHT22;5638;50.860;4.698;2022-09-14T09:31:02;18.70;99.90
8850;DHT22;5638;50.860;4.698;2022-09-14T09:33:31;18.60;99.90
8850;DHT22;5638;50.860;4.698;2022-09-14T09:35:58;18.60;99.90
8850;DHT22;5638;50.860;4.698;2022-09-14T09:38:27;18.60;99.90
8850;DHT22;5638;50.860;4.698;2022-09-14T09:41:15;18.70;99.90
8850;DHT22;5638;50.860;4.698;2022-09-14T09:44:07;18.60;99.90
8850;DHT22;5638;50.860;4.698;2022-09-14T09:46:50;18.70;99.90
8850;DHT22;5638;50.860;4.698;2022-09-14T09:51:54;18.80;99.90
8850;DHT22;5638;50.860;4.698;2022-09-14T09:54:29;18.80;99.90
8850;DHT22;5638;50.860;4.698;2022-09-14T09:57:02;18.80;99.90
8850;DHT22;5638;50.860;4.698;2022-09-14T10:02:20;18.70;99.90
8850;DHT22;5638;50.860;4.698;2022-09-14T10:05:02;18.70;99.90
8850;DHT22;5638;50.860;4.698;2022-09-14T10:07:58;18.80;99.90
8850;DHT22;5638;50.860;4.698;2022-09-14T10:13:09;19.00;99.90
8850;DHT22;5638;50.860;4.698;2022-09-14T10:15:46;19.00;99.90
8850;DHT22;5638;50.860;4.698;2022-09-14T10:18:17;19.10;99.90
8850;DHT22;5638;50.860;4.698;2022-09-14T10:25:46;19.40;99.90
8850;DHT22;5638;50.860;4.698;2022-09-14T10:31:06;19.60;99.90
8850;DHT22;5638;50.860;4.698;2022-09-14T10:33:43;19.70;99.90
8850;DHT22;5638;50.860;4.698;2022-09-14T10:36:29;19.70;99.90
8850;DHT22;5638;50.860;4.698;2022-09-14T10:41:40;19.70;99.90
8850;DHT22;5638;50.860;4.698;2022-09-14T10:50:32;19.40;99.90
8850;DHT22;5638;50.860;4.698;2022-09-14T10:55:52;19.20;99.90
8850;DHT22;5638;50.860;4.698;2022-09-14T11:13:42;19.30;99.90
8850;DHT22;5638;50.860;4.698;2022-09-14T11:16:45;19.40;99.90
8850;DHT22;5638;50.860;4.698;2022-09-14T11:19:57;19.50;99.90
8850;DHT22;5638;50.860;4.698;2022-09-14T11:25:28;19.50;99.90
8850;DHT22;5638;50.860;4.698;2022-09-14T11:28:17;19.50;99.90
8850;DHT22;5638;50.860;4.698;2022-09-14T11:36:40;19.30;99.90
8850;DHT22;5638;50.860;4.698;2022-09-14T11:39:18;19.30;99.90
8850;DHT22;5638;50.860;4.698;2022-09-14T11:44:27;19.50;99.90
8850;DHT22;5638;50.860;4.698;2022-09-14T11:50:02;19.60;99.90
8850;DHT22;5638;50.860;4.698;2022-09-14T11:53:11;19.50;99.90
8850;DHT22;5638;50.860;4.698;2022-09-14T11:55:48;19.70;99.90
8850;DHT22;5638;50.860;4.698;2022-09-14T11:58:21;20.00;99.90
8850;DHT22;5638;50.860;4.698;2022-09-14T12:11:52;20.00;99.90
8850;DHT22;5638;50.860;4.698;2022-09-14T12:17:23;20.30;99.90
8850;DHT22;5638;50.860;4.698;2022-09-14T12:20:18;20.50;99.90
8850;DHT22;5638;50.860;4.698;2022-09-14T12:22:45;20.40;99.90
8850;DHT22;5638;50.860;4.698;2022-09-14T12:27:38;20.10;99.90
8850;DHT22;5638;50.860;4.698;2022-09-14T12:36:05;20.10;99.90
8850;DHT22;5638;50.860;4.698;2022-09-14T12:38:40;20.00;99.90
8850;DHT22;5638;50.860;4.698;2022-09-14T12:43:49;19.50;99.90
8850;DHT22;5638;50.860;4.698;2022-09-14T12:56:40;19.00;99.90
8850;DHT22;5638;50.860;4.698;2022-09-14T13:05:18;19.10;99.90
8850;DHT22;5638;50.860;4.698;2022-09-14T13:07:48;19.20;99.90
8850;DHT22;5638;50.860;4.698;2022-09-14T13:10:29;19.20;99.90
8850;DHT22;5638;50.860;4.698;2022-09-14T13:13:04;19.40;99.90
8850;DHT22;5638;50.860;4.698;2022-09-14T13:15:48;19.40;99.90
8850;DHT22;5638;50.860;4.698;2022-09-14T13:20:52;19.40;99.90
8850;DHT22;5638;50.860;4.698;2022-09-14T13:23:21;19.50;99.90
8850;DHT22;5638;50.860;4.698;2022-09-14T13:25:51;19.50;99.90
8850;DHT22;5638;50.860;4.698;2022-09-14T13:28:18;19.50;99.90
8850;DHT22;5638;50.860;4.698;2022-09-14T13:30:53;19.50;99.90
8850;DHT22;5638;50.860;4.698;2022-09-14T13:33:23;19.60;99.90
8850;DHT22;5638;50.860;4.698;2022-09-14T13:35:51;19.70;99.90
8850;DHT22;5638;50.860;4.698;2022-09-14T13:38:23;19.80;99.90
8850;DHT22;5638;50.860;4.698;2022-09-14T13:40:54;19.70;99.90
8850;DHT22;5638;50.860;4.698;2022-09-14T13:43:28;19.70;99.90
8850;DHT22;5638;50.860;4.698;2022-09-14T13:45:55;19.80;99.90
8850;DHT22;5638;50.860;4.698;2022-09-14T13:48:21;19.80;99.90
8850;DHT22;5638;50.860;4.698;2022-09-14T13:50:49;19.70;99.90
8850;DHT22;5638;50.860;4.698;2022-09-14T13:53:45;19.70;99.90
8850;DHT22;5638;50.860;4.698;2022-09-14T14:01:40;19.50;99.90
8850;DHT22;5638;50.860;4.698;2022-09-14T14:04:46;19.40;99.90
8850;DHT22;5638;50.860;4.698;2022-09-14T14:09:55;19.70;99.90
8850;DHT22;5638;50.860;4.698;2022-09-14T14:12:28;19.80;99.90
8850;DHT22;5638;50.860;4.698;2022-09-14T14:15:05;19.90;99.90
8850;DHT22;5638;50.860;4.698;2022-09-14T14:17:53;19.90;99.90
8850;DHT22;5638;50.860;4.698;2022-09-14T14:22:57;20.10;99.90
8850;DHT22;5638;50.860;4.698;2022-09-14T14:25:40;20.10;99.90
8850;DHT22;5638;50.860;4.698;2022-09-14T14:28:16;20.20;99.90
8850;DHT22;5638;50.860;4.698;2022-09-14T14:30:44;20.30;99.90
8850;DHT22;5638;50.860;4.698;2022-09-14T14:33:12;20.30;99.90
8850;DHT22;5638;50.860;4.698;2022-09-14T14:35:39;20.30;99.90
8850;DHT22;5638;50.860;4.698;2022-09-14T14:38:06;20.20;99.90
8850;DHT22;5638;50.860;4.698;2022-09-14T14:40:32;20.10;99.90
8850;DHT22;5638;50.860;4.698;2022-09-14T14:43:00;20.00;99.90
8850;DHT22;5638;50.860;4.698;2022-09-14T14:45:29;20.00;99.90
8850;DHT22;5638;50.860;4.698;2022-09-14T14:47:56;20.00;99.90
8850;DHT22;5638;50.860;4.698;2022-09-14T14:50:30;20.10;99.90
8850;DHT22;5638;50.860;4.698;2022-09-14T14:52:59;20.00;99.90
8850;DHT22;5638;50.860;4.698;2022-09-14T14:55:26;19.90;99.90
8850;DHT22;5638;50.860;4.698;2022-09-14T14:57:58;19.70;99.90
8850;DHT22;5638;50.860;4.698;2022-09-14T15:00:26;19.70;99.90
8850;DHT22;5638;50.860;4.698;2022-09-14T15:02:54;19.70;99.90
8850;DHT22;5638;50.860;4.698;2022-09-14T15:05:21;19.70;99.90
8850;DHT22;5638;50.860;4.698;2022-09-14T15:07:47;19.50;99.90
8850;DHT22;5638;50.860;4.698;2022-09-14T15:10:17;19.60;99.90
8850;DHT22;5638;50.860;4.698;2022-09-14T15:12:44;19.60;99.90
8850;DHT22;5638;50.860;4.698;2022-09-14T15:15:19;19.70;99.90
8850;DHT22;5638;50.860;4.698;2022-09-14T15:17:48;19.70;99.90
8850;DHT22;5638;50.860;4.698;2022-09-14T15:20:15;19.80;99.90
8850;DHT22;5638;50.860;4.698;2022-09-14T15:22:42;19.80;99.90
8850;DHT22;5638;50.860;4.698;2022-09-14T15:25:09;19.80;99.90
8850;DHT22;5638;50.860;4.698;2022-09-14T15:27:36;19.70;99.90
8850;DHT22;5638;50.860;4.698;2022-09-14T15:30:04;19.70;99.90
8850;DHT22;5638;50.860;4.698;2022-09-14T15:32:30;19.60;99.90
8850;DHT22;5638;50.860;4.698;2022-09-14T15:34:56;19.50;99.90
8850;DHT22;5638;50.860;4.698;2022-09-14T15:37:22;19.30;99.90
8850;DHT22;5638;50.860;4.698;2022-09-14T15:39:47;19.20;99.90
8850;DHT22;5638;50.860;4.698;2022-09-14T15:42:16;19.10;99.90
8850;DHT22;5638;50.860;4.698;2022-09-14T15:44:43;19.00;99.90
8850;DHT22;5638;50.860;4.698;2022-09-14T15:47:11;19.20;99.90
8850;DHT22;5638;50.860;4.698;2022-09-14T15:49:39;19.30;99.90
8850;DHT22;5638;50.860;4.698;2022-09-14T15:52:05;19.30;99.90
8850;DHT22;5638;50.860;4.698;2022-09-14T15:54:34;19.50;99.90
8850;DHT22;5638;50.860;4.698;2022-09-14T15:57:03;19.40;99.90
8850;DHT22;5638;50.860;4.698;2022-09-14T15:59:31;19.40;99.90
8850;DHT22;5638;50.860;4.698;2022-09-14T16:01:57;19.30;99.90
8850;DHT22;5638;50.860;4.698;2022-09-14T16:04:23;19.30;99.90
8850;DHT22;5638;50.860;4.698;2022-09-14T16:06:49;19.30;99.90
8850;DHT22;5638;50.860;4.698;2022-09-14T16:09:16;19.20;99.90
8850;DHT22;5638;50.860;4.698;2022-09-14T16:11:44;19.10;99.90
8850;DHT22;5638;50.860;4.698;2022-09-14T16:14:10;19.20;99.90
8850;DHT22;5638;50.860;4.698;2022-09-14T16:16:37;19.20;99.90
8850;DHT22;5638;50.860;4.698;2022-09-14T16:19:12;19.30;99.90
8850;DHT22;5638;50.860;4.698;2022-09-14T16:21:40;19.30;99.90
8850;DHT22;5638;50.860;4.698;2022-09-14T16:24:11;19.20;99.90
8850;DHT22;5638;50.860;4.698;2022-09-14T16:26:43;19.10;99.90
8850;DHT22;5638;50.860;4.698;2022-09-14T16:29:11;19.00;99.90
8850;DHT22;5638;50.860;4.698;2022-09-14T16:31:41;19.00;99.90
8850;DHT22;5638;50.860;4.698;2022-09-14T16:34:12;18.80;99.90
8850;DHT22;5638;50.860;4.698;2022-09-14T16:36:41;18.80;99.90
8850;DHT22;5638;50.860;4.698;2022-09-14T16:39:11;18.90;99.90
8850;DHT22;5638;50.860;4.698;2022-09-14T16:41:39;18.80;99.90
8850;DHT22;5638;50.860;4.698;2022-09-14T16:44:09;18.80;99.90
8850;DHT22;5638;50.860;4.698;2022-09-14T16:46:38;18.80;99.90
8850;DHT22;5638;50.860;4.698;2022-09-14T16:49:04;18.80;99.90
8850;DHT22;5638;50.860;4.698;2022-09-14T16:51:31;18.80;99.90
8850;DHT22;5638;50.860;4.698;2022-09-14T16:53:58;18.90;99.90
8850;DHT22;5638;50.860;4.698;2022-09-14T16:56:28;18.70;99.90
8850;DHT22;5638;50.860;4.698;2022-09-14T16:58:58;18.70;99.90
8850;DHT22;5638;50.860;4.698;2022-09-14T17:01:31;18.70;99.90
8850;DHT22;5638;50.860;4.698;2022-09-14T17:04:04;18.60;99.90
8850;DHT22;5638;50.860;4.698;2022-09-14T17:06:33;18.50;99.90
8850;DHT22;5638;50.860;4.698;2022-09-14T17:09:07;18.30;99.90
8850;DHT22;5638;50.860;4.698;2022-09-14T17:11:36;18.20;99.90
8850;DHT22;5638;50.860;4.698;2022-09-14T17:14:04;18.30;99.90
8850;DHT22;5638;50.860;4.698;2022-09-14T17:16:31;18.20;99.90
8850;DHT22;5638;50.860;4.698;2022-09-14T17:18:59;18.20;99.90
8850;DHT22;5638;50.860;4.698;2022-09-14T17:21:30;18.30;99.90
8850;DHT22;5638;50.860;4.698;2022-09-14T17:23:58;18.30;99.90
8850;DHT22;5638;50.860;4.698;2022-09-14T17:26:25;18.30;99.90
8850;DHT22;5638;50.860;4.698;2022-09-14T17:28:54;18.40;99.90
8850;DHT22;5638;50.860;4.698;2022-09-14T17:31:23;18.50;99.90
8850;DHT22;5638;50.860;4.698;2022-09-14T17:33:52;18.50;99.90
8850;DHT22;5638;50.860;4.698;2022-09-14T17:36:19;18.30;99.90
8850;DHT22;5638;50.860;4.698;2022-09-14T17:38:46;18.40;99.90
8850;DHT22;5638;50.860;4.698;2022-09-14T17:41:18;18.40;99.90
8850;DHT22;5638;50.860;4.698;2022-09-14T17:43:51;18.50;99.90
8850;DHT22;5638;50.860;4.698;2022-09-14T17:46:28;18.50;99.90
8850;DHT22;5638;50.860;4.698;2022-09-14T17:48:56;18.50;99.90
8850;DHT22;5638;50.860;4.698;2022-09-14T17:51:25;18.40;99.90
8850;DHT22;5638;50.860;4.698;2022-09-14T17:53:55;18.30;99.90
8850;DHT22;5638;50.860;4.698;2022-09-14T17:56:24;18.40;99.90
8850;DHT22;5638;50.860;4.698;2022-09-14T17:59:00;18.30;99.90
8850;DHT22;5638;50.860;4.698;2022-09-14T18:01:35;18.30;99.90
8850;DHT22;5638;50.860;4.698;2022-09-14T18:04:03;18.20;99.90
8850;DHT22;5638;50.860;4.698;2022-09-14T18:06:40;18.20;99.90
8850;DHT22;5638;50.860;4.698;2022-09-14T18:09:19;18.20;99.90
8850;DHT22;5638;50.860;4.698;2022-09-14T18:11:47;18.20;99.90
8850;DHT22;5638;50.860;4.698;2022-09-14T18:14:14;18.30;99.90
8850;DHT22;5638;50.860;4.698;2022-09-14T18:16:42;18.30;99.90
8850;DHT22;5638;50.860;4.698;2022-09-14T18:19:09;18.30;99.90
8850;DHT22;5638;50.860;4.698;2022-09-14T18:21:35;18.30;99.90
8850;DHT22;5638;50.860;4.698;2022-09-14T18:24:02;18.30;99.90
8850;DHT22;5638;50.860;4.698;2022-09-14T18:26:28;18.30;99.90
8850;DHT22;5638;50.860;4.698;2022-09-14T18:28:54;18.40;99.90
8850;DHT22;5638;50.860;4.698;2022-09-14T18:31:21;18.40;99.90
8850;DHT22;5638;50.860;4.698;2022-09-14T18:33:57;18.50;99.90
8850;DHT22;5638;50.860;4.698;2022-09-14T18:36:26;18.40;99.90
8850;DHT22;5638;50.860;4.698;2022-09-14T18:38:53;18.30;99.90
8850;DHT22;5638;50.860;4.698;2022-09-14T18:41:19;18.30;99.90
8850;DHT22;5638;50.860;4.698;2022-09-14T18:43:48;18.40;99.90
8850;DHT22;5638;50.860;4.698;2022-09-14T18:46:16;18.40;99.90
8850;DHT22;5638;50.860;4.698;2022-09-14T18:48:42;18.40;99.90
8850;DHT22;5638;50.860;4.698;2022-09-14T18:51:10;18.30;99.90
8850;DHT22;5638;50.860;4.698;2022-09-14T18:53:37;18.30;99.90